createdAt,value
2018-08-19T00:00:59.551Z,100348.66
2018-08-19T00:03:28.662Z,100348.02
2018-08-19T00:05:57.303Z,100341.39
2018-08-19T00:08:26.340Z,100347.28
2018-08-19T00:11:01.939Z,100353.34
2018-08-19T00:13:30.710Z,100354.64
2018-08-19T00:15:59.487Z,100350.02
2018-08-19T00:18:28.168Z,100356.95
2018-08-19T00:20:57.404Z,100348.27
2018-08-19T00:23:26.174Z,100349.36
2018-08-19T00:25:54.845Z,100340.71
2018-08-19T00:28:23.480Z,100346.59
2018-08-19T00:30:52.105Z,100342.66
2018-08-19T00:33:21.476Z,100342.20
2018-08-19T00:35:50.480Z,100348.36
2018-08-19T00:38:19.196Z,100344.58
2018-08-19T00:40:47.860Z,100347.94
2018-08-19T00:43:16.465Z,100345.70
2018-08-19T00:45:45.081Z,100344.06
2018-08-19T00:48:13.771Z,100347.28
2018-08-19T00:50:42.752Z,100347.81
2018-08-19T00:53:12.018Z,100348.60
2018-08-19T00:55:45.964Z,100348.11
2018-08-19T00:58:16.904Z,100349.74
2018-08-19T01:00:45.584Z,100346.13
2018-08-19T01:03:14.538Z,100348.36
2018-08-19T01:05:43.238Z,100342.83
2018-08-19T01:08:13.200Z,100343.89
2018-08-19T01:10:42.052Z,100342.98
2018-08-19T01:13:11.901Z,100341.38
2018-08-19T01:15:40.659Z,100346.06
2018-08-19T01:18:09.592Z,100348.23
2018-08-19T01:20:38.264Z,100352.58
2018-08-19T01:23:06.911Z,100341.53
2018-08-19T01:25:35.552Z,100342.27
2018-08-19T01:28:04.724Z,100342.67
2018-08-19T01:30:33.356Z,100339.02
2018-08-19T01:33:02.144Z,100338.28
2018-08-19T01:35:37.868Z,100341.84
2018-08-19T01:38:07.911Z,100343.51
2018-08-19T01:40:36.706Z,100343.94
2018-08-19T01:43:07.098Z,100342.59
2018-08-19T01:45:35.985Z,100341.70
2018-08-19T01:48:04.601Z,100344.88
2018-08-19T01:50:33.221Z,100342.80
2018-08-19T01:53:01.831Z,100343.98
2018-08-19T01:55:31.368Z,100343.73
2018-08-19T01:57:59.997Z,100348.71
2018-08-19T02:00:28.648Z,100348.15
2018-08-19T02:03:00.266Z,100348.89
2018-08-19T02:05:28.987Z,100343.34
2018-08-19T02:07:59.862Z,100349.28
2018-08-19T02:10:29.363Z,100358.60
2018-08-19T02:12:58.555Z,100352.20
2018-08-19T02:15:28.202Z,100346.41
2018-08-19T02:17:57.661Z,100346.66
2018-08-19T02:20:32.187Z,100345.91
2018-08-19T02:23:02.048Z,100350.06
2018-08-19T02:25:34.015Z,100348.33
2018-08-19T02:28:03.412Z,100349.21
2018-08-19T02:30:32.060Z,100352.63
2018-08-19T02:35:27.398Z,100345.37
2018-08-19T02:37:56.021Z,100349.85
2018-08-19T02:40:31.626Z,100353.70
2018-08-19T02:43:00.282Z,100350.63
2018-08-19T02:45:28.925Z,100353.05
2018-08-19T02:47:57.588Z,100350.09
2018-08-19T02:50:26.297Z,100346.68
2018-08-19T02:52:54.946Z,100359.70
2018-08-19T02:55:25.868Z,100358.87
2018-08-19T02:57:59.855Z,100359.59
2018-08-19T03:00:28.516Z,100353.13
2018-08-19T03:02:57.492Z,100359.97
2018-08-19T03:05:26.090Z,100360.99
2018-08-19T03:07:55.455Z,100364.15
2018-08-19T03:10:24.099Z,100363.98
2018-08-19T03:12:52.748Z,100364.52
2018-08-19T03:15:21.424Z,100355.60
2018-08-19T03:17:50.413Z,100361.77
2018-08-19T03:20:19.301Z,100368.72
2018-08-19T03:22:47.938Z,100365.63
2018-08-19T03:25:16.888Z,100363.53
2018-08-19T03:27:45.482Z,100363.00
2018-08-19T03:30:15.493Z,100361.89
2018-08-19T03:32:50.260Z,100360.83
2018-08-19T03:35:20.924Z,100369.14
2018-08-19T03:37:53.253Z,100368.64
2018-08-19T03:40:25.002Z,100374.98
2018-08-19T03:42:53.911Z,100371.11
2018-08-19T03:45:22.819Z,100363.75
2018-08-19T03:47:52.568Z,100370.41
2018-08-19T03:50:23.706Z,100366.77
2018-08-19T03:52:53.343Z,100363.73
2018-08-19T03:55:33.209Z,100369.17
2018-08-19T03:58:06.786Z,100370.57
2018-08-19T04:00:38.680Z,100369.88
2018-08-19T04:03:14.902Z,100368.41
2018-08-19T04:05:46.003Z,100371.27
2018-08-19T04:08:15.574Z,100375.69
2018-08-19T04:10:45.442Z,100369.42
2018-08-19T04:13:32.522Z,100370.04
2018-08-19T04:16:02.261Z,100374.58
2018-08-19T04:18:35.914Z,100374.25
2018-08-19T04:21:08.105Z,100372.33
2018-08-19T04:23:37.255Z,100379.08
2018-08-19T04:26:06.085Z,100371.55
2018-08-19T04:28:37.228Z,100380.72
2018-08-19T04:31:12.090Z,100376.41
2018-08-19T04:33:42.274Z,100378.76
2018-08-19T04:36:12.383Z,100380.12
2018-08-19T04:38:41.341Z,100376.81
2018-08-19T04:41:10.025Z,100379.73
2018-08-19T04:43:38.653Z,100377.86
2018-08-19T04:46:07.314Z,100377.05
2018-08-19T04:48:36.452Z,100373.78
2018-08-19T04:51:05.361Z,100378.05
2018-08-19T04:53:35.205Z,100369.42
2018-08-19T04:56:04.144Z,100371.89
2018-08-19T04:58:32.782Z,100374.88
2018-08-19T05:01:01.505Z,100372.16
2018-08-19T05:03:30.098Z,100367.81
2018-08-19T05:05:59.789Z,100366.77
2018-08-19T05:08:28.624Z,100370.52
2018-08-19T05:10:57.294Z,100370.73
2018-08-19T05:13:28.513Z,100363.05
2018-08-19T05:15:57.888Z,100370.24
2018-08-19T05:18:27.171Z,100368.73
2018-08-19T05:21:01.449Z,100366.15
2018-08-19T05:23:30.690Z,100369.74
2018-08-19T05:25:59.968Z,100369.76
2018-08-19T05:28:29.211Z,100373.17
2018-08-19T05:30:58.390Z,100375.08
2018-08-19T05:33:27.632Z,100375.20
2018-08-19T05:35:57.460Z,100381.39
2018-08-19T05:38:26.745Z,100378.77
2018-08-19T05:41:00.569Z,100383.45
2018-08-19T05:43:30.367Z,100394.61
2018-08-19T05:46:00.680Z,100389.28
2018-08-19T05:48:30.279Z,100391.66
2018-08-19T05:50:59.857Z,100389.94
2018-08-19T05:53:29.116Z,100401.05
2018-08-19T05:55:58.350Z,100398.53
2018-08-19T05:58:27.612Z,100403.70
2018-08-19T06:01:01.431Z,100407.86
2018-08-19T06:03:30.813Z,100405.30
2018-08-19T06:06:00.114Z,100413.85
2018-08-19T06:08:29.385Z,100421.62
2018-08-19T06:10:58.621Z,100422.86
2018-08-19T06:13:28.965Z,100421.16
2018-08-19T06:15:58.234Z,100427.48
2018-08-19T06:18:27.343Z,100429.08
2018-08-19T06:20:56.602Z,100434.44
2018-08-19T06:23:25.539Z,100438.64
2018-08-19T06:25:54.504Z,100435.50
2018-08-19T06:28:23.440Z,100429.78
2018-08-19T06:30:52.389Z,100428.97
2018-08-19T06:33:21.354Z,100431.62
2018-08-19T06:35:50.280Z,100433.74
2018-08-19T06:38:19.376Z,100436.09
2018-08-19T06:40:48.345Z,100428.27
2018-08-19T06:43:17.354Z,100429.05
2018-08-19T06:45:46.406Z,100432.56
2018-08-19T06:48:15.337Z,100431.88
2018-08-19T06:50:44.309Z,100432.00
2018-08-19T06:53:18.640Z,100425.53
2018-08-19T06:55:47.636Z,100432.23
2018-08-19T06:58:16.564Z,100428.86
2018-08-19T07:00:45.493Z,100432.66
2018-08-19T07:03:14.473Z,100435.59
2018-08-19T07:05:43.727Z,100437.22
2018-08-19T07:08:13.833Z,100435.89
2018-08-19T07:10:42.936Z,100438.62
2018-08-19T07:13:13.337Z,100439.28
2018-08-19T07:15:43.624Z,100443.55
2018-08-19T07:18:14.342Z,100439.30
2018-08-19T07:20:44.009Z,100440.12
2018-08-19T07:23:13.428Z,100446.22
2018-08-19T07:25:43.541Z,100434.36
2018-08-19T07:28:13.652Z,100431.55
2018-08-19T07:30:43.125Z,100437.54
2018-08-19T07:33:13.041Z,100436.18
2018-08-19T07:35:42.336Z,100435.89
2018-08-19T07:38:12.469Z,100437.35
2018-08-19T07:40:41.890Z,100448.48
2018-08-19T07:43:11.188Z,100445.11
2018-08-19T07:45:41.285Z,100452.64
2018-08-19T07:48:10.535Z,100445.05
2018-08-19T07:50:39.766Z,100446.06
2018-08-19T07:53:09.053Z,100450.30
2018-08-19T07:55:38.495Z,100449.81
2018-08-19T07:58:08.142Z,100445.86
2018-08-19T08:00:39.744Z,100442.70
2018-08-19T08:03:09.228Z,100443.98
2018-08-19T08:05:43.710Z,100449.22
2018-08-19T08:08:12.932Z,100453.94
2018-08-19T08:10:41.878Z,100439.61
2018-08-19T08:13:11.883Z,100443.03
2018-08-19T08:15:46.340Z,100445.80
2018-08-19T08:18:15.612Z,100440.69
2018-08-19T08:23:21.903Z,100441.05
2018-08-19T08:25:50.888Z,100439.18
2018-08-19T08:28:19.992Z,100441.34
2018-08-19T08:30:48.899Z,100441.43
2018-08-19T08:33:19.441Z,100431.89
2018-08-19T08:35:54.776Z,100431.91
2018-08-19T08:38:23.708Z,100428.78
2018-08-19T08:40:53.113Z,100432.95
2018-08-19T08:43:22.512Z,100435.31
2018-08-19T08:45:51.687Z,100432.78
2018-08-19T08:48:21.050Z,100430.59
2018-08-19T08:50:50.029Z,100427.91
2018-08-19T08:53:19.045Z,100432.62
2018-08-19T08:55:48.254Z,100424.98
2018-08-19T08:58:17.580Z,100422.25
2018-08-19T09:00:47.486Z,100423.08
2018-08-19T09:03:16.477Z,100414.10
2018-08-19T09:05:45.585Z,100422.39
2018-08-19T09:08:14.588Z,100414.37
2018-08-19T09:10:43.531Z,100405.67
2018-08-19T09:13:12.566Z,100410.59
2018-08-19T09:15:41.821Z,100412.23
2018-08-19T09:18:11.345Z,100403.64
2018-08-19T09:20:40.563Z,100396.55
2018-08-19T09:23:09.865Z,100397.52
2018-08-19T09:25:39.228Z,100396.70
2018-08-19T09:28:08.468Z,100388.75
2018-08-19T09:30:41.269Z,100379.63
2018-08-19T09:33:10.759Z,100383.77
2018-08-19T09:35:41.168Z,100385.42
2018-08-19T09:38:14.991Z,100382.66
2018-08-19T09:40:44.562Z,100384.01
2018-08-19T09:43:14.932Z,100381.95
2018-08-19T09:45:44.525Z,100386.92
2018-08-19T09:48:14.279Z,100381.45
2018-08-19T09:50:44.093Z,100374.81
2018-08-19T09:53:13.282Z,100374.16
2018-08-19T09:55:44.719Z,100367.03
2018-08-19T09:58:17.866Z,100368.98
2018-08-19T10:00:52.704Z,100371.44
2018-08-19T10:03:21.913Z,100366.21
2018-08-19T10:05:51.186Z,100367.20
2018-08-19T10:08:22.169Z,100369.30
2018-08-19T10:10:51.769Z,100362.86
2018-08-19T10:13:20.990Z,100358.24
2018-08-19T10:15:50.209Z,100350.77
2018-08-19T10:18:19.424Z,100356.84
2018-08-19T10:20:48.617Z,100350.99
2018-08-19T10:23:17.781Z,100352.58
2018-08-19T10:25:47.006Z,100347.91
2018-08-19T10:28:16.335Z,100350.47
2018-08-19T10:30:50.646Z,100343.75
2018-08-19T10:33:21.284Z,100349.31
2018-08-19T10:35:50.540Z,100345.96
2018-08-19T10:38:19.742Z,100345.59
2018-08-19T10:40:57.533Z,100338.97
2018-08-19T10:43:29.611Z,100335.05
2018-08-19T10:45:58.883Z,100333.76
2018-08-19T10:48:28.175Z,100327.47
2018-08-19T10:50:57.368Z,100331.15
2018-08-19T10:53:28.771Z,100327.18
2018-08-19T10:56:00.793Z,100328.08
2018-08-19T10:58:30.520Z,100326.17
2018-08-19T11:00:59.871Z,100323.00
2018-08-19T11:03:30.409Z,100320.05
2018-08-19T11:05:59.637Z,100327.92
2018-08-19T11:08:29.194Z,100316.71
2018-08-19T11:11:00.101Z,100316.13
2018-08-19T11:13:29.391Z,100314.20
2018-08-19T11:15:59.327Z,100314.75
2018-08-19T11:18:41.476Z,100316.44
2018-08-19T11:21:20.885Z,100306.39
2018-08-19T11:23:50.060Z,100311.77
2018-08-19T11:26:19.289Z,100308.91
2018-08-19T11:28:50.720Z,100299.62
2018-08-19T11:31:26.136Z,100300.83
2018-08-19T11:33:56.947Z,100301.64
2018-08-19T11:36:32.737Z,100292.98
2018-08-19T11:39:02.112Z,100296.31
2018-08-19T11:41:33.337Z,100298.90
2018-08-19T11:44:08.172Z,100293.30
2018-08-19T11:46:38.176Z,100287.77
2018-08-19T11:49:10.245Z,100291.76
2018-08-19T11:51:51.084Z,100282.22
2018-08-19T11:54:21.923Z,100279.77
2018-08-19T11:56:58.341Z,100275.34
2018-08-19T11:59:36.815Z,100274.80
2018-08-19T12:02:07.939Z,100275.07
2018-08-19T12:04:37.511Z,100273.94
2018-08-19T12:07:06.813Z,100269.59
2018-08-19T12:09:36.211Z,100270.55
2018-08-19T12:12:06.040Z,100263.42
2018-08-19T12:14:36.981Z,100264.37
2018-08-19T12:17:09.467Z,100255.23
2018-08-19T12:19:40.510Z,100254.19
2018-08-19T12:22:10.077Z,100260.61
2018-08-19T12:24:41.232Z,100256.88
2018-08-19T12:27:12.726Z,100250.51
2018-08-19T12:29:42.869Z,100245.03
2018-08-19T12:32:17.478Z,100243.66
2018-08-19T12:34:48.104Z,100250.67
2018-08-19T12:37:19.038Z,100239.80
2018-08-19T12:39:48.828Z,100243.44
2018-08-19T12:42:18.450Z,100237.22
2018-08-19T12:44:54.395Z,100233.09
2018-08-19T12:47:25.888Z,100225.05
2018-08-19T12:49:59.659Z,100231.75
2018-08-19T12:52:30.087Z,100225.64
2018-08-19T12:55:17.889Z,100213.63
2018-08-19T12:57:51.425Z,100218.36
2018-08-19T13:00:25.577Z,100217.06
2018-08-19T13:02:55.071Z,100211.21
2018-08-19T13:05:24.676Z,100209.14
2018-08-19T13:07:54.072Z,100209.27
2018-08-19T13:10:23.793Z,100201.53
2018-08-19T13:12:54.293Z,100206.73
2018-08-19T13:15:24.726Z,100205.22
2018-08-19T13:17:54.032Z,100198.88
2018-08-19T13:20:23.322Z,100196.91
2018-08-19T13:22:58.008Z,100189.55
2018-08-19T13:25:28.094Z,100191.64
2018-08-19T13:27:58.154Z,100187.09
2018-08-19T13:30:27.650Z,100184.45
2018-08-19T13:32:56.920Z,100177.98
2018-08-19T13:35:26.443Z,100174.32
2018-08-19T13:37:55.675Z,100175.03
2018-08-19T13:40:25.770Z,100175.83
2018-08-19T13:42:54.986Z,100179.15
2018-08-19T13:45:26.681Z,100179.95
2018-08-19T13:47:56.630Z,100169.09
2018-08-19T13:50:26.299Z,100166.91
2018-08-19T13:52:55.585Z,100166.64
2018-08-19T13:55:24.812Z,100158.99
2018-08-19T13:57:54.090Z,100165.47
2018-08-19T14:00:24.341Z,100157.38
2018-08-19T14:02:53.580Z,100159.26
2018-08-19T14:05:23.206Z,100158.59
2018-08-19T14:07:52.490Z,100152.84
2018-08-19T14:10:21.828Z,100149.05
2018-08-19T14:12:51.072Z,100143.88
2018-08-19T14:15:20.329Z,100153.56
2018-08-19T14:17:49.642Z,100144.80
2018-08-19T14:20:18.936Z,100143.88
2018-08-19T14:22:48.190Z,100139.59
2018-08-19T14:25:17.438Z,100132.00
2018-08-19T14:27:46.727Z,100130.03
2018-08-19T14:30:16.022Z,100125.75
2018-08-19T14:32:46.689Z,100127.63
2018-08-19T14:35:15.937Z,100129.45
2018-08-19T14:37:48.909Z,100126.20
2018-08-19T14:40:19.638Z,100122.66
2018-08-19T14:42:49.072Z,100120.12
2018-08-19T14:45:18.395Z,100116.68
2018-08-19T14:47:47.675Z,100118.39
2018-08-19T14:50:19.764Z,100114.14
2018-08-19T14:52:49.450Z,100111.86
2018-08-19T14:55:19.012Z,100105.84
2018-08-19T14:57:48.259Z,100102.17
2018-08-19T15:00:18.300Z,100101.46
2018-08-19T15:02:47.495Z,100102.88
2018-08-19T15:05:19.253Z,100100.33
2018-08-19T15:07:48.979Z,100100.33
2018-08-19T15:10:22.924Z,100096.53
2018-08-19T15:12:52.636Z,100086.98
2018-08-19T15:15:21.917Z,100085.11
2018-08-19T15:17:56.575Z,100083.95
2018-08-19T15:20:33.040Z,100078.88
2018-08-19T15:23:20.764Z,100076.46
2018-08-19T15:25:49.956Z,100075.67
2018-08-19T15:28:19.390Z,100068.63
2018-08-19T15:30:48.596Z,100065.16
2018-08-19T15:33:17.826Z,100070.23
2018-08-19T15:35:47.256Z,100068.98
2018-08-19T15:38:16.429Z,100063.89
2018-08-19T15:40:49.900Z,100062.73
2018-08-19T15:43:19.421Z,100060.68
2018-08-19T15:45:48.796Z,100064.02
2018-08-19T15:48:18.829Z,100057.12
2018-08-19T15:50:48.034Z,100058.14
2018-08-19T15:53:19.101Z,100051.47
2018-08-19T15:55:48.398Z,100053.66
2018-08-19T15:58:17.608Z,100050.98
2018-08-19T16:00:46.811Z,100048.19
2018-08-19T16:03:16.033Z,100048.98
2018-08-19T16:05:45.268Z,100043.59
2018-08-19T16:08:14.502Z,100048.41
2018-08-19T16:10:43.990Z,100041.72
2018-08-19T16:13:13.492Z,100041.11
2018-08-19T16:15:42.692Z,100041.66
2018-08-19T16:18:12.229Z,100039.12
2018-08-19T16:20:44.264Z,100047.13
2018-08-19T16:23:13.617Z,100037.08
2018-08-19T16:25:42.818Z,100035.78
2018-08-19T16:28:12.233Z,100031.41
2018-08-19T16:30:41.418Z,100035.47
2018-08-19T16:33:10.635Z,100033.03
2018-08-19T16:35:39.883Z,100028.53
2018-08-19T16:38:09.111Z,100029.80
2018-08-19T16:40:38.523Z,100035.36
2018-08-19T16:43:07.752Z,100026.41
2018-08-19T16:45:37.308Z,100026.17
2018-08-19T16:50:57.784Z,100029.55
2018-08-19T16:53:27.453Z,100033.41
2018-08-19T16:55:56.661Z,100031.45
2018-08-19T16:58:25.884Z,100029.64
2018-08-19T17:00:55.417Z,100034.61
2018-08-19T17:03:36.184Z,100024.33
2018-08-19T17:06:08.418Z,100024.13
2018-08-19T17:08:38.457Z,100021.10
2018-08-19T17:11:08.828Z,100023.66
2018-08-19T17:13:38.183Z,100024.32
2018-08-19T17:16:07.945Z,100023.08
2018-08-19T17:18:37.683Z,100022.14
2018-08-19T17:21:07.257Z,100023.28
2018-08-19T17:23:36.849Z,100027.17
2018-08-19T17:26:11.874Z,100025.01
2018-08-19T17:28:41.238Z,100024.36
2018-08-19T17:31:10.449Z,100019.19
2018-08-19T17:33:39.613Z,100021.39
2018-08-19T17:36:09.243Z,100018.98
2018-08-19T17:38:39.185Z,100019.56
2018-08-19T17:41:08.386Z,100025.88
2018-08-19T17:43:41.813Z,100023.57
2018-08-19T17:46:13.040Z,100024.52
2018-08-19T17:48:43.848Z,100030.41
2018-08-19T17:51:25.123Z,100026.70
2018-08-19T17:53:54.301Z,100029.97
2018-08-19T17:56:23.505Z,100034.23
2018-08-19T17:58:52.769Z,100034.40
2018-08-19T18:01:22.490Z,100032.91
2018-08-19T18:03:51.694Z,100037.52
2018-08-19T18:06:20.905Z,100038.56
2018-08-19T18:08:51.264Z,100041.39
2018-08-19T18:11:21.746Z,100038.92
2018-08-19T18:13:51.052Z,100041.94
2018-08-19T18:16:20.864Z,100039.46
2018-08-19T18:18:50.334Z,100040.31
2018-08-19T18:21:19.541Z,100039.63
2018-08-19T18:23:49.610Z,100039.42
2018-08-19T18:26:18.858Z,100048.39
2018-08-19T18:28:48.862Z,100047.44
2018-08-19T18:31:22.282Z,100043.47
2018-08-19T18:33:54.538Z,100048.24
2018-08-19T18:36:25.150Z,100042.44
2018-08-19T18:38:54.430Z,100042.22
2018-08-19T18:41:39.647Z,100044.31
2018-08-19T18:44:10.228Z,100046.63
2018-08-19T18:46:39.555Z,100045.01
2018-08-19T18:49:12.577Z,100046.48
2018-08-19T18:51:43.555Z,100043.23
2018-08-19T18:54:21.332Z,100049.22
2018-08-19T18:56:50.549Z,100046.94
2018-08-19T18:59:20.276Z,100046.28
2018-08-19T19:01:49.561Z,100046.38
2018-08-19T19:04:18.817Z,100045.16
2018-08-19T19:06:48.018Z,100046.41
2018-08-19T19:09:17.212Z,100043.48
2018-08-19T19:11:49.188Z,100046.11
2018-08-19T19:14:18.487Z,100040.22
2018-08-19T19:16:50.108Z,100042.75
2018-08-19T19:19:19.408Z,100043.30
2018-08-19T19:21:52.700Z,100036.80
2018-08-19T19:24:26.496Z,100033.10
2018-08-19T19:26:55.720Z,100031.25
2018-08-19T19:29:27.653Z,100028.52
2018-08-19T19:31:59.109Z,100029.69
2018-08-19T19:34:30.925Z,100025.53
2018-08-19T19:37:00.163Z,100019.86
2018-08-19T19:39:29.376Z,100020.36
2018-08-19T19:42:02.708Z,100021.98
2018-08-19T19:44:36.069Z,100013.65
2018-08-19T19:47:06.707Z,100019.73
2018-08-19T19:49:43.648Z,100011.64
2018-08-19T19:52:12.993Z,100013.95
2018-08-19T19:54:42.220Z,100015.98
2018-08-19T19:57:11.449Z,100015.75
2018-08-19T19:59:40.664Z,100012.45
2018-08-19T20:02:16.700Z,100014.18
2018-08-19T20:04:46.024Z,100015.59
2018-08-19T20:07:15.205Z,100015.91
2018-08-19T20:09:44.605Z,100018.02
2018-08-19T20:12:18.083Z,100011.90
2018-08-19T20:14:51.117Z,100012.45
2018-08-19T20:17:21.115Z,100016.31
2018-08-19T20:19:50.502Z,100015.08
2018-08-19T20:22:20.126Z,100017.11
2018-08-19T20:24:49.309Z,100016.77
2018-08-19T20:27:18.532Z,100013.01
2018-08-19T20:29:52.542Z,100018.21
2018-08-19T20:32:22.467Z,100022.91
2018-08-19T20:34:51.967Z,100018.86
2018-08-19T20:37:23.952Z,100014.25
2018-08-19T20:39:53.779Z,100022.39
2018-08-19T20:42:23.082Z,100016.81
2018-08-19T20:44:52.658Z,100014.00
2018-08-19T20:47:21.858Z,100016.69
2018-08-19T20:49:51.396Z,100007.52
2018-08-19T20:52:34.308Z,100010.59
2018-08-19T20:55:03.841Z,100010.84
2018-08-19T20:57:34.181Z,100011.18
2018-08-19T21:00:03.679Z,100006.83
2018-08-19T21:02:33.020Z,100009.42
2018-08-19T21:05:02.324Z,100007.25
2018-08-19T21:07:31.567Z,100003.97
2018-08-19T21:10:00.761Z,100003.59
2018-08-19T21:12:29.999Z,100003.81
2018-08-19T21:14:59.170Z,100003.21
2018-08-19T21:17:29.737Z,100006.33
2018-08-19T21:19:58.947Z,100002.95
2018-08-19T21:22:28.148Z,99998.21
2018-08-19T21:24:57.395Z,100002.54
2018-08-19T21:27:26.602Z,100005.47
2018-08-19T21:29:55.910Z,100003.81
2018-08-19T21:32:25.393Z,100005.89
2018-08-19T21:34:54.585Z,100002.44
2018-08-19T21:37:27.995Z,99998.30
2018-08-19T21:39:57.213Z,99997.75
2018-08-19T21:42:26.805Z,99993.14
2018-08-19T21:44:56.027Z,99989.91
2018-08-19T21:47:25.242Z,99995.11
2018-08-19T21:49:58.674Z,99988.30
2018-08-19T21:52:27.879Z,99984.23
2018-08-19T21:54:57.060Z,99986.67
2018-08-19T21:57:26.274Z,99988.04
2018-08-19T21:59:55.464Z,99987.27
2018-08-19T22:03:31.500Z,99982.62
2018-08-19T22:06:03.801Z,99989.45
2018-08-19T22:08:33.367Z,99991.64
2018-08-19T22:11:02.568Z,99988.10
2018-08-19T22:13:31.764Z,99980.21
2018-08-19T22:16:01.005Z,99980.81
2018-08-19T22:18:31.460Z,99978.37
2018-08-19T22:21:23.528Z,99974.34
2018-08-19T22:23:56.008Z,99971.95
2018-08-19T22:26:25.260Z,99965.73
2018-08-19T22:29:08.685Z,99967.95
2018-08-19T22:31:38.396Z,99962.55
2018-08-19T22:34:07.600Z,99964.30
2018-08-19T22:36:36.985Z,99959.69
2018-08-19T22:39:08.760Z,99963.27
2018-08-19T22:41:37.526Z,99959.73
2018-08-19T22:44:06.195Z,99952.06
2018-08-19T22:46:35.380Z,99955.64
2018-08-19T22:49:06.134Z,99957.08
2018-08-19T22:51:35.553Z,99951.89
2018-08-19T22:54:04.219Z,99950.56
2018-08-19T22:56:33.434Z,99951.12
2018-08-19T22:59:02.193Z,99950.35
2018-08-19T23:01:37.056Z,99948.81
2018-08-19T23:04:06.486Z,99948.04
2018-08-19T23:06:35.834Z,99944.22
2018-08-19T23:09:06.628Z,99937.73
2018-08-19T23:11:41.683Z,99937.44
2018-08-19T23:14:22.210Z,99937.22
2018-08-19T23:16:51.694Z,99942.16
2018-08-19T23:19:22.533Z,99935.09
2018-08-19T23:21:52.254Z,99932.95
2018-08-19T23:24:21.439Z,99928.86
2018-08-19T23:26:51.134Z,99930.55
2018-08-19T23:29:20.404Z,99925.62
2018-08-19T23:31:49.627Z,99928.05
2018-08-19T23:34:19.108Z,99926.72
2018-08-19T23:36:48.429Z,99923.73
2018-08-19T23:39:17.067Z,99926.98
2018-08-19T23:41:46.276Z,99924.81
2018-08-19T23:44:15.496Z,99917.70
2018-08-19T23:46:44.822Z,99917.73
2018-08-19T23:49:13.470Z,99913.61
2018-08-19T23:51:42.752Z,99917.11
2018-08-19T23:54:11.932Z,99919.28
2018-08-19T23:56:41.133Z,99913.02
2018-08-19T23:59:09.790Z,99913.83
